Impacts METAR Board
IDs:

KDTW - Detroit Metro/Wayne, MI, US

Updated at: 1100 UTC 24 Jan 2019
Potential Impact None Slight Moderate High
Time 23/23Z 24/00Z 24/01Z 24/02Z 24/03Z 24/04Z 24/05Z 24/06Z 24/07Z 24/08Z 24/09Z 24/10Z 24/11Z
Temp41 40 38 35 33 32 31 30 29 29 29 29 28
Dewpt37 36 32 27 24 23 21 19 19 19 19 19 19
Altim29.59 29.64 29.65 29.66 29.69 29.69 29.70 29.71 29.71 29.71 29.70 29.70 29.72
VIS10 10 10 10 10 10 10 10 10 10 10 10 10
CIG28 15 120 18 180 180 25 25 25 25 25 25 20
CoverOVCOVCOVCOVCOVCOVCOVCOVCOVCOVCOVCOVCOVC
FltCatMVFRMVFRVFRMVFRVFRVFRMVFRMVFRMVFRMVFRMVFRMVFRMVFR
WX--------------------------
WDir240250260270290290310320310330310310310
WSpd12 12 9 16 11 11 16 13 11 9 12 13 10
WGst-- -- -- 22 20 -- 20 18 -- -- 21 -- --
Raw hourly METARs
KDTW 232300Z 24012KT 10SM SCT011 BKN028 OVC040 05/03 A2959 RMK AO2 T00500028
KDTW 232353Z 25012KT 10SM BKN015 OVC025 04/02 A2964 RMK AO2 SLP043 60007 T00440022 10061 20044 53016
KDTW 240053Z 26009KT 10SM FEW015 SCT025 OVC120 03/00 A2965 RMK AO2 SLP047 T00330000
KDTW 240153Z 27016G22KT 10SM OVC018 02/M03 A2966 RMK AO2 SLP050 T00171028
KDTW 240253Z 29011G20KT 10SM SCT020 OVC180 01/M04 A2969 RMK AO2 SLP058 T00061044 53014
KDTW 240353Z 29011KT 10SM SCT025 OVC180 00/M05 A2969 RMK AO2 SLP060 T00001050
KDTW 240453Z 31016G20KT 10SM OVC025 M01/M06 A2970 RMK AO2 SLP064 T10061061 400611011
KDTW 240553Z 32013G18KT 10SM OVC025 M01/M07 A2971 RMK AO2 SLP065 T10111072 10044 21011 51007
KDTW 240653Z 31011KT 10SM OVC025 M02/M07 A2971 RMK AO2 SLP065 T10171072
KDTW 240753Z 33009KT 10SM OVC025 M02/M07 A2971 RMK AO2 SLP065 T10171072
KDTW 240853Z 31012G21KT 10SM OVC025 M02/M07 A2970 RMK AO2 SLP061 T10171072 58004
KDTW 240953Z 31013KT 10SM OVC025 M02/M07 A2970 RMK AO2 SLP062 T10171072
KDTW 241053Z 31010KT 10SM OVC020 M02/M07 A2972 RMK AO2 SLP068 T10221072



Page loaded:  11:45 UTC  |   03:45 AM Pacific  |   04:45 AM Mountain  |   05:45 AM Central  |   06:45 AM Eastern

 

ADVISORIES

FORECASTS

FORECASTS

OBSERVATIONS

USER TOOLS

ABOUT US